createdAt,value
2022-11-02T00:00:31.576Z,100198.73
2022-11-02T00:02:58.556Z,100195.63
2022-11-02T00:05:05.775Z,100197.70
2022-11-02T00:07:12.427Z,100195.39
2022-11-02T00:09:18.732Z,100194.27
2022-11-02T00:11:25.309Z,100192.57
2022-11-02T00:13:31.435Z,100192.92
2022-11-02T00:15:38.545Z,100194.08
2022-11-02T00:17:49.249Z,100194.59
2022-11-02T00:19:55.363Z,100197.55
2022-11-02T00:22:03.538Z,100205.14
2022-11-02T00:24:12.214Z,100213.36
2022-11-02T00:26:19.063Z,100209.46
2022-11-02T00:28:26.037Z,100207.53
2022-11-02T00:30:32.045Z,100213.69
2022-11-02T00:32:38.604Z,100218.11
2022-11-02T00:34:45.056Z,100220.44
2022-11-02T00:36:55.313Z,100220.11
2022-11-02T00:39:02.119Z,100223.13
2022-11-02T00:41:08.470Z,100218.89
2022-11-02T00:43:15.736Z,100222.28
2022-11-02T00:45:23.781Z,100219.28
2022-11-02T00:47:30.879Z,100221.59
2022-11-02T00:49:37.232Z,100227.00
2022-11-02T00:51:45.529Z,100229.20
2022-11-02T00:53:53.083Z,100226.20
2022-11-02T00:55:59.837Z,100223.43
2022-11-02T00:58:06.294Z,100232.36
2022-11-02T01:00:14.007Z,100235.11
2022-11-02T01:02:21.010Z,100239.58
2022-11-02T01:04:27.699Z,100241.06
2022-11-02T01:06:34.361Z,100242.39
2022-11-02T01:08:41.799Z,100241.30
2022-11-02T01:10:48.519Z,100245.36
2022-11-02T01:12:55.365Z,100243.95
2022-11-02T01:15:01.955Z,100245.68
2022-11-02T01:17:08.374Z,100246.22
2022-11-02T01:19:14.582Z,100248.02
2022-11-02T01:21:21.128Z,100249.16
2022-11-02T01:23:27.471Z,100252.00
2022-11-02T01:25:33.533Z,100257.36
2022-11-02T01:27:39.838Z,100261.09
2022-11-02T01:29:45.820Z,100265.64
2022-11-02T01:31:53.689Z,100265.16
2022-11-02T01:34:00.198Z,100266.55
2022-11-02T01:36:08.663Z,100270.08
2022-11-02T01:38:14.998Z,100278.62
2022-11-02T01:40:21.562Z,100284.45
2022-11-02T01:42:29.538Z,100282.20
2022-11-02T01:44:37.139Z,100285.20
2022-11-02T01:46:46.651Z,100291.73
2022-11-02T01:49:17.026Z,100291.13
2022-11-02T01:51:37.664Z,100295.66
2022-11-02T01:53:48.673Z,100296.77
2022-11-02T01:55:55.621Z,100300.44
2022-11-02T01:58:09.601Z,100297.88
2022-11-02T02:00:17.818Z,100305.44
2022-11-02T02:02:27.148Z,100308.25
2022-11-02T02:04:34.759Z,100305.08
2022-11-02T02:06:41.993Z,100306.46
2022-11-02T02:08:50.923Z,100311.70
2022-11-02T02:11:01.121Z,100305.59
2022-11-02T02:13:09.028Z,100317.21
2022-11-02T02:15:16.119Z,100316.39
2022-11-02T02:17:54.599Z,100315.05
2022-11-02T02:20:09.573Z,100323.59
2022-11-02T02:22:48.794Z,100326.48
2022-11-02T02:25:00.465Z,100328.92
2022-11-02T02:27:14.196Z,100334.06
2022-11-02T02:29:24.636Z,100336.79
2022-11-02T02:31:50.472Z,100340.24
2022-11-02T02:34:08.574Z,100341.84
2022-11-02T02:36:17.678Z,100347.59
2022-11-02T02:38:44.599Z,100353.51
2022-11-02T02:41:06.501Z,100356.98
2022-11-02T02:43:39.324Z,100361.37
2022-11-02T02:45:47.737Z,100360.66
2022-11-02T02:48:19.607Z,100366.80
2022-11-02T02:50:35.985Z,100367.60
2022-11-02T02:52:44.321Z,100370.83
2022-11-02T02:54:53.616Z,100372.96
2022-11-02T02:57:07.644Z,100383.17
2022-11-02T02:59:35.189Z,100383.45
2022-11-02T03:01:45.623Z,100383.64
2022-11-02T03:03:51.759Z,100388.13
2022-11-02T03:06:07.461Z,100388.11
2022-11-02T03:08:18.442Z,100395.48
2022-11-02T03:10:34.968Z,100394.39
2022-11-02T03:13:01.867Z,100397.05
2022-11-02T03:15:27.207Z,100397.27
2022-11-02T03:17:39.943Z,100396.44
2022-11-02T03:19:55.201Z,100393.70
2022-11-02T03:22:06.320Z,100397.30
2022-11-02T03:24:18.363Z,100399.11
2022-11-02T03:26:27.561Z,100394.41
2022-11-02T03:29:01.120Z,100385.59
2022-11-02T03:31:34.126Z,100378.47
2022-11-02T03:33:49.070Z,100384.95
2022-11-02T03:36:10.581Z,100376.48
2022-11-02T03:38:34.119Z,100372.55
2022-11-02T03:40:46.298Z,100364.90
2022-11-02T03:42:54.209Z,100359.86
2022-11-02T03:45:06.062Z,100361.27
2022-11-02T03:47:16.559Z,100352.52
2022-11-02T03:49:25.469Z,100353.88
2022-11-02T03:51:37.693Z,100357.67
2022-11-02T03:54:01.403Z,100357.77
2022-11-02T03:56:13.888Z,100357.88
2022-11-02T03:58:20.555Z,100362.06
2022-11-02T04:00:28.913Z,100369.42
2022-11-02T04:02:40.961Z,100375.90
2022-11-02T04:04:54.299Z,100385.27
2022-11-02T04:07:02.993Z,100398.09
2022-11-02T04:09:09.326Z,100402.14
2022-11-02T04:11:35.720Z,100406.06
2022-11-02T04:14:03.538Z,100411.71
2022-11-02T04:16:13.758Z,100414.84
2022-11-02T04:18:38.967Z,100413.77
2022-11-02T04:20:45.340Z,100417.98
2022-11-02T04:23:09.813Z,100418.59
2022-11-02T04:25:21.841Z,100413.45
2022-11-02T04:27:39.037Z,100413.75
2022-11-02T04:29:46.048Z,100412.20
2022-11-02T04:31:53.531Z,100413.16
2022-11-02T04:34:00.799Z,100412.89
2022-11-02T04:36:08.801Z,100411.65
2022-11-02T04:38:33.929Z,100418.58
2022-11-02T04:40:41.108Z,100420.91
2022-11-02T04:42:50.801Z,100420.82
2022-11-02T04:44:57.251Z,100420.42
2022-11-02T04:47:03.328Z,100419.91
2022-11-02T04:49:12.932Z,100429.33
2022-11-02T04:51:21.627Z,100434.39
2022-11-02T04:53:28.683Z,100435.23
2022-11-02T04:55:35.682Z,100438.21
2022-11-02T04:57:46.668Z,100444.27
2022-11-02T04:59:53.003Z,100443.08
2022-11-02T05:01:59.365Z,100439.63
2022-11-02T05:04:06.560Z,100439.25
2022-11-02T05:06:13.422Z,100437.52
2022-11-02T05:08:20.371Z,100435.91
2022-11-02T05:10:26.582Z,100437.11
2022-11-02T05:12:32.956Z,100444.42
2022-11-02T05:14:39.588Z,100445.39
2022-11-02T05:16:46.033Z,100448.92
2022-11-02T05:18:52.699Z,100454.75
2022-11-02T05:21:02.016Z,100448.80
2022-11-02T05:23:08.852Z,100450.10
2022-11-02T05:25:15.276Z,100451.78
2022-11-02T05:27:21.807Z,100450.70
2022-11-02T05:29:28.281Z,100443.29
2022-11-02T05:31:34.482Z,100441.85
2022-11-02T05:33:41.095Z,100448.20
2022-11-02T05:35:54.230Z,100447.64
2022-11-02T05:38:02.150Z,100449.93
2022-11-02T05:40:09.901Z,100459.55
2022-11-02T05:42:16.817Z,100458.24
2022-11-02T05:44:23.431Z,100471.35
2022-11-02T05:46:30.067Z,100476.48
2022-11-02T05:48:36.906Z,100475.64
2022-11-02T05:50:43.748Z,100477.58
2022-11-02T05:52:50.617Z,100480.27
2022-11-02T05:54:57.405Z,100482.03
2022-11-02T05:57:04.171Z,100484.12
2022-11-02T05:59:11.237Z,100482.73
2022-11-02T06:01:18.331Z,100479.20
2022-11-02T06:03:24.453Z,100482.55
2022-11-02T06:05:30.804Z,100484.48
2022-11-02T06:07:37.056Z,100484.33
2022-11-02T06:09:43.598Z,100488.88
2022-11-02T06:11:49.683Z,100491.02
2022-11-02T06:13:55.910Z,100494.27
2022-11-02T06:16:03.482Z,100496.64
2022-11-02T06:18:09.630Z,100498.07
2022-11-02T06:20:16.418Z,100503.88
2022-11-02T06:22:22.838Z,100504.33
2022-11-02T06:24:30.075Z,100499.35
2022-11-02T06:26:36.406Z,100499.98
2022-11-02T06:28:42.974Z,100493.97
2022-11-02T06:30:53.720Z,100489.20
2022-11-02T06:33:02.980Z,100486.62
2022-11-02T06:35:13.211Z,100492.96
2022-11-02T06:37:20.117Z,100496.32
2022-11-02T06:39:26.884Z,100494.84
2022-11-02T06:41:33.473Z,100493.15
2022-11-02T06:43:40.126Z,100492.43
2022-11-02T06:45:47.491Z,100497.47
2022-11-02T06:47:54.080Z,100499.75
2022-11-02T06:50:01.340Z,100508.05
2022-11-02T06:52:08.249Z,100517.98
2022-11-02T06:54:15.747Z,100513.67
2022-11-02T06:56:22.785Z,100520.45
2022-11-02T06:58:29.617Z,100526.30
2022-11-02T07:00:36.202Z,100517.20
2022-11-02T07:02:42.390Z,100523.47
2022-11-02T07:04:48.820Z,100523.17
2022-11-02T07:06:55.070Z,100524.55
2022-11-02T07:09:01.558Z,100516.14
2022-11-02T07:11:08.216Z,100511.73
2022-11-02T07:13:14.365Z,100512.64
2022-11-02T07:15:21.306Z,100510.91
2022-11-02T07:17:32.011Z,100512.90
2022-11-02T07:19:39.432Z,100511.30
2022-11-02T07:21:47.760Z,100518.89
2022-11-02T07:23:54.621Z,100523.69
2022-11-02T07:26:03.808Z,100522.73
2022-11-02T07:28:14.477Z,100528.89
2022-11-02T07:30:30.657Z,100533.71
2022-11-02T07:32:48.502Z,100536.94
2022-11-02T07:34:58.926Z,100541.74
2022-11-02T07:37:05.712Z,100540.63
2022-11-02T07:39:12.288Z,100540.89
2022-11-02T07:41:19.017Z,100537.79
2022-11-02T07:43:25.703Z,100542.61
2022-11-02T07:45:52.352Z,100543.98
2022-11-02T07:47:59.318Z,100550.61
2022-11-02T07:50:06.073Z,100547.88
2022-11-02T07:52:12.359Z,100557.51
2022-11-02T07:54:19.461Z,100553.57
2022-11-02T07:56:26.143Z,100561.85
2022-11-02T07:58:32.726Z,100565.09
2022-11-02T08:00:42.247Z,100565.27
2022-11-02T08:02:49.016Z,100571.68
2022-11-02T08:04:55.772Z,100564.49
2022-11-02T08:07:02.357Z,100564.82
2022-11-02T08:09:08.831Z,100564.63
2022-11-02T08:11:35.183Z,100565.30
2022-11-02T08:13:41.503Z,100565.11
2022-11-02T08:15:52.644Z,100568.39
2022-11-02T08:18:24.937Z,100574.02
2022-11-02T08:20:32.052Z,100577.33
2022-11-02T08:22:42.215Z,100573.80
2022-11-02T08:24:49.025Z,100573.87
2022-11-02T08:26:55.721Z,100579.14
2022-11-02T08:29:02.338Z,100590.39
2022-11-02T08:31:13.571Z,100597.91
2022-11-02T08:33:21.202Z,100605.67
2022-11-02T08:35:27.833Z,100607.39
2022-11-02T08:37:34.126Z,100608.29
2022-11-02T08:39:40.472Z,100614.20
2022-11-02T08:41:46.589Z,100613.81
2022-11-02T08:43:52.756Z,100615.25
2022-11-02T08:46:17.147Z,100612.02
2022-11-02T08:48:24.275Z,100616.89
2022-11-02T08:50:30.504Z,100619.15
2022-11-02T08:52:40.789Z,100616.43
2022-11-02T08:54:47.541Z,100621.55
2022-11-02T08:56:53.826Z,100622.16
2022-11-02T08:59:00.560Z,100620.88
2022-11-02T09:01:07.523Z,100622.64
2022-11-02T09:03:17.174Z,100618.00
2022-11-02T09:05:25.372Z,100623.23
2022-11-02T09:07:31.858Z,100624.27
2022-11-02T09:09:38.266Z,100623.27
2022-11-02T09:11:44.689Z,100628.73
2022-11-02T09:13:56.521Z,100623.63
2022-11-02T09:16:03.831Z,100628.16
2022-11-02T09:18:10.847Z,100634.75
2022-11-02T09:20:21.948Z,100625.73
2022-11-02T09:22:28.226Z,100629.10
2022-11-02T09:24:34.352Z,100636.70
2022-11-02T09:26:40.544Z,100639.01
2022-11-02T09:28:47.059Z,100638.95
2022-11-02T09:30:53.773Z,100643.16
2022-11-02T09:33:02.468Z,100645.63
2022-11-02T09:35:13.182Z,100651.73
2022-11-02T09:37:19.888Z,100649.91
2022-11-02T09:39:26.224Z,100658.66
2022-11-02T09:41:55.889Z,100658.63
2022-11-02T09:44:12.663Z,100663.01
2022-11-02T09:46:21.446Z,100665.00
2022-11-02T09:48:33.295Z,100672.15
2022-11-02T09:51:05.555Z,100677.96
2022-11-02T09:53:29.256Z,100683.63
2022-11-02T09:55:39.320Z,100682.31
2022-11-02T09:57:49.886Z,100683.84
2022-11-02T09:59:56.510Z,100684.42
2022-11-02T10:02:40.238Z,100687.97
2022-11-02T10:05:14.403Z,100689.63
2022-11-02T10:07:42.372Z,100695.58
2022-11-02T10:10:11.073Z,100697.56
2022-11-02T10:12:28.450Z,100697.86
2022-11-02T10:14:53.124Z,100694.77
2022-11-02T10:17:27.073Z,100698.14
2022-11-02T10:19:36.383Z,100696.54
2022-11-02T10:21:47.211Z,100696.98
2022-11-02T10:23:56.287Z,100694.10
2022-11-02T10:26:04.279Z,100694.24
2022-11-02T10:28:20.164Z,100694.91
2022-11-02T10:30:26.624Z,100693.89
2022-11-02T10:32:36.721Z,100690.00
2022-11-02T10:34:54.141Z,100696.73
2022-11-02T10:37:24.863Z,100700.66
2022-11-02T10:39:50.006Z,100704.77
2022-11-02T10:42:16.029Z,100711.16
2022-11-02T10:44:51.792Z,100710.51
2022-11-02T10:47:06.764Z,100714.25
2022-11-02T10:49:33.939Z,100718.27
2022-11-02T10:51:40.355Z,100719.61
2022-11-02T10:53:50.217Z,100724.14
2022-11-02T10:56:17.764Z,100722.98
2022-11-02T10:58:25.969Z,100728.98
2022-11-02T11:00:38.090Z,100731.70
2022-11-02T11:02:44.561Z,100737.64
2022-11-02T11:04:51.369Z,100740.10
2022-11-02T11:07:00.255Z,100736.52
2022-11-02T11:09:17.702Z,100733.20
2022-11-02T11:11:37.127Z,100732.24
2022-11-02T11:16:17.791Z,100745.66
2022-11-02T11:20:57.209Z,100741.95
2022-11-02T11:23:33.101Z,100740.33
2022-11-02T11:29:24.378Z,100751.47
2022-11-02T11:31:32.827Z,100741.84
2022-11-02T11:33:57.912Z,100745.23
2022-11-02T11:36:04.421Z,100743.09
2022-11-02T11:38:16.961Z,100743.73
2022-11-02T11:40:24.211Z,100750.05
2022-11-02T11:42:35.422Z,100751.17
2022-11-02T11:44:47.618Z,100754.88
2022-11-02T11:46:57.968Z,100749.63
2022-11-02T11:49:05.078Z,100757.23
2022-11-02T11:51:35.890Z,100762.21
2022-11-02T11:53:42.429Z,100764.39
2022-11-02T11:55:53.519Z,100767.74
2022-11-02T11:58:21.191Z,100775.58
2022-11-02T12:00:29.927Z,100772.58
2022-11-02T12:02:43.911Z,100776.56
2022-11-02T12:04:51.436Z,100775.21
2022-11-02T12:07:12.548Z,100780.35
2022-11-02T12:09:45.475Z,100781.88
2022-11-02T12:12:07.294Z,100780.34
2022-11-02T12:14:39.480Z,100780.94
2022-11-02T12:16:56.636Z,100782.40
2022-11-02T12:19:48.551Z,100781.30
2022-11-02T12:22:09.258Z,100784.52
2022-11-02T12:24:21.686Z,100785.70
2022-11-02T12:26:37.062Z,100794.80
2022-11-02T12:29:00.483Z,100796.25
2022-11-02T12:31:12.601Z,100797.68
2022-11-02T12:33:18.757Z,100802.00
2022-11-02T12:35:32.166Z,100802.44
2022-11-02T12:38:09.312Z,100806.61
2022-11-02T12:40:49.414Z,100806.83
2022-11-02T12:43:03.927Z,100799.85
2022-11-02T12:45:24.475Z,100805.03
2022-11-02T12:47:39.354Z,100805.95
2022-11-02T12:50:01.516Z,100807.34
2022-11-02T12:52:46.863Z,100803.58
2022-11-02T12:55:07.445Z,100799.30
2022-11-02T12:57:21.934Z,100800.44
2022-11-02T12:59:36.125Z,100805.27
2022-11-02T13:01:45.499Z,100806.89
2022-11-02T13:04:01.791Z,100803.59
2022-11-02T13:06:13.679Z,100804.27
2022-11-02T13:08:24.022Z,100805.78
2022-11-02T13:10:40.406Z,100801.90
2022-11-02T13:12:50.044Z,100804.66
2022-11-02T13:14:59.848Z,100808.14
2022-11-02T13:17:29.488Z,100809.09
2022-11-02T13:20:10.047Z,100811.15
2022-11-02T13:22:20.256Z,100809.52
2022-11-02T13:24:32.634Z,100814.16
2022-11-02T13:26:47.571Z,100819.74
2022-11-02T13:29:05.461Z,100827.33
2022-11-02T13:31:50.153Z,100825.46
2022-11-02T13:34:01.505Z,100830.46
2022-11-02T13:36:08.634Z,100831.61
2022-11-02T13:38:19.634Z,100831.71
2022-11-02T13:40:33.444Z,100830.85
2022-11-02T13:43:12.326Z,100836.44
2022-11-02T13:45:49.870Z,100842.48
2022-11-02T13:48:10.070Z,100847.10
2022-11-02T13:50:19.897Z,100847.07
2022-11-02T13:52:58.199Z,100844.67
2022-11-02T13:55:08.258Z,100844.61
2022-11-02T13:57:36.237Z,100842.88
2022-11-02T13:59:47.218Z,100844.22
2022-11-02T14:01:55.981Z,100847.02
2022-11-02T14:04:10.782Z,100842.77
2022-11-02T14:06:21.541Z,100842.13
2022-11-02T14:08:42.153Z,100838.95
2022-11-02T14:11:05.564Z,100838.20
2022-11-02T14:13:15.836Z,100839.29
2022-11-02T14:15:21.834Z,100845.30
2022-11-02T14:17:27.977Z,100844.63
2022-11-02T14:19:53.036Z,100849.68
2022-11-02T14:22:02.153Z,100846.98
2022-11-02T14:24:34.778Z,100849.29
2022-11-02T14:26:54.841Z,100849.31
2022-11-02T14:29:04.966Z,100850.85
2022-11-02T14:31:19.955Z,100850.87
2022-11-02T14:33:38.585Z,100849.80
2022-11-02T14:35:55.841Z,100854.91
2022-11-02T14:38:40.859Z,100854.17
2022-11-02T14:41:14.403Z,100850.73
2022-11-02T14:43:40.051Z,100854.95
2022-11-02T14:46:09.668Z,100856.96
2022-11-02T14:48:17.915Z,100856.14
2022-11-02T14:50:24.868Z,100857.67
2022-11-02T14:52:37.939Z,100860.81
2022-11-02T14:55:01.641Z,100859.80
2022-11-02T14:57:25.163Z,100861.92
2022-11-02T14:59:41.412Z,100867.06
2022-11-02T15:01:57.403Z,100865.34
2022-11-02T15:04:09.391Z,100862.31
2022-11-02T15:06:24.848Z,100868.60
2022-11-02T15:09:05.247Z,100873.39
2022-11-02T15:11:49.496Z,100877.86
2022-11-02T15:13:56.528Z,100884.56
2022-11-02T15:16:03.344Z,100888.02
2022-11-02T15:18:37.933Z,100892.25
2022-11-02T15:20:46.357Z,100899.59
2022-11-02T15:23:21.146Z,100904.51
2022-11-02T15:25:41.128Z,100907.92
2022-11-02T15:27:50.730Z,100910.38
2022-11-02T15:29:58.878Z,100915.85
2022-11-02T15:32:11.463Z,100921.89
2022-11-02T15:34:22.049Z,100920.02
2022-11-02T15:36:39.259Z,100925.17
2022-11-02T15:38:53.722Z,100928.98
2022-11-02T15:41:26.169Z,100932.39
2022-11-02T15:43:48.156Z,100934.71
2022-11-02T15:46:15.720Z,100939.77
2022-11-02T15:48:34.994Z,100942.52
2022-11-02T15:50:44.682Z,100945.70
2022-11-02T15:53:22.890Z,100952.68
2022-11-02T15:55:53.131Z,100952.88
2022-11-02T15:58:07.099Z,100962.30
2022-11-02T16:00:42.658Z,100958.36
2022-11-02T16:02:51.538Z,100967.64
2022-11-02T16:05:01.760Z,100966.02
2022-11-02T16:07:10.260Z,100973.02
2022-11-02T16:09:35.969Z,100971.48
2022-11-02T16:11:42.875Z,100971.93
2022-11-02T16:14:07.940Z,100972.92
2022-11-02T16:16:19.292Z,100982.20
2022-11-02T16:18:32.400Z,100983.34
2022-11-02T16:20:41.241Z,100985.90
2022-11-02T16:23:01.193Z,100989.57
2022-11-02T16:25:20.417Z,100994.06
2022-11-02T16:27:26.674Z,100993.79
2022-11-02T16:29:34.381Z,100994.75
2022-11-02T16:31:42.102Z,100998.92
2022-11-02T16:33:55.876Z,100998.45
2022-11-02T16:36:02.920Z,101006.64
2022-11-02T16:38:10.659Z,101009.87
2022-11-02T16:40:21.925Z,101008.54
2022-11-02T16:42:28.736Z,101020.77
2022-11-02T16:44:36.193Z,101019.98
2022-11-02T16:46:50.394Z,101025.18
2022-11-02T16:49:12.701Z,101025.34
2022-11-02T16:51:20.559Z,101029.14
2022-11-02T16:53:33.211Z,101030.27
2022-11-02T16:55:48.004Z,101035.59
2022-11-02T16:57:54.540Z,101033.64
2022-11-02T17:00:10.683Z,101035.48
2022-11-02T17:02:17.369Z,101038.55
2022-11-02T17:04:26.492Z,101038.31
2022-11-02T17:06:40.926Z,101048.18
2022-11-02T17:08:54.711Z,101046.70
2022-11-02T17:11:04.467Z,101048.23
2022-11-02T17:13:21.803Z,101058.01
2022-11-02T17:15:31.103Z,101055.80
2022-11-02T17:17:41.092Z,101052.83
2022-11-02T17:19:54.649Z,101058.55
2022-11-02T17:22:25.060Z,101059.59
2022-11-02T17:24:36.381Z,101063.82
2022-11-02T17:26:43.092Z,101065.89
2022-11-02T17:28:52.384Z,101069.16
2022-11-02T17:30:58.583Z,101072.86
2022-11-02T17:33:26.890Z,101072.52
2022-11-02T17:35:33.867Z,101071.82
2022-11-02T17:37:40.627Z,101071.14
2022-11-02T17:39:46.786Z,101074.30
2022-11-02T17:42:16.422Z,101074.89
2022-11-02T17:44:22.537Z,101077.45
2022-11-02T17:46:28.872Z,101081.14
2022-11-02T17:48:35.391Z,101081.38
2022-11-02T17:50:43.040Z,101078.94
2022-11-02T17:52:51.404Z,101078.58
2022-11-02T17:54:58.275Z,101081.17
2022-11-02T17:57:12.749Z,101081.51
2022-11-02T17:59:18.689Z,101083.60
2022-11-02T18:01:25.757Z,101084.48
2022-11-02T18:03:32.871Z,101089.16
2022-11-02T18:05:41.645Z,101093.55
2022-11-02T18:07:51.594Z,101095.06
2022-11-02T18:09:58.002Z,101093.52
2022-11-02T18:12:04.735Z,101098.35
2022-11-02T18:14:17.732Z,101097.70
2022-11-02T18:16:24.409Z,101099.86
2022-11-02T18:18:30.626Z,101107.25
2022-11-02T18:20:41.560Z,101106.30
2022-11-02T18:22:48.730Z,101109.80
2022-11-02T18:24:55.585Z,101109.28
2022-11-02T18:27:01.874Z,101110.65
2022-11-02T18:29:08.217Z,101118.90
2022-11-02T18:31:14.296Z,101122.71
2022-11-02T18:33:20.463Z,101125.38
2022-11-02T18:35:26.875Z,101127.38
2022-11-02T18:37:34.647Z,101134.23
2022-11-02T18:39:40.692Z,101133.44
2022-11-02T18:41:47.746Z,101133.21
2022-11-02T18:43:56.803Z,101138.39
2022-11-02T18:46:05.219Z,101136.33
2022-11-02T18:48:11.572Z,101140.70
2022-11-02T18:50:17.666Z,101142.82
2022-11-02T18:52:25.990Z,101142.83
2022-11-02T18:54:34.606Z,101145.10
2022-11-02T18:56:40.909Z,101149.40
2022-11-02T18:58:50.793Z,101152.31
2022-11-02T19:00:57.296Z,101151.60
2022-11-02T19:03:03.495Z,101155.48
2022-11-02T19:05:28.187Z,101150.78
2022-11-02T19:07:52.977Z,101154.72
2022-11-02T19:10:02.469Z,101153.87
2022-11-02T19:12:17.137Z,101160.23
2022-11-02T19:14:25.538Z,101161.45
2022-11-02T19:16:31.566Z,101159.13
2022-11-02T19:18:37.771Z,101159.13
2022-11-02T19:20:43.883Z,101154.66
2022-11-02T19:22:55.532Z,101154.77
2022-11-02T19:25:02.352Z,101153.16
2022-11-02T19:27:13.276Z,101152.45
2022-11-02T19:29:20.086Z,101154.03
2022-11-02T19:31:26.880Z,101153.09
2022-11-02T19:33:33.200Z,101152.02
2022-11-02T19:35:39.820Z,101154.89
2022-11-02T19:37:45.930Z,101152.94
2022-11-02T19:39:52.174Z,101147.56
2022-11-02T19:41:58.472Z,101149.25
2022-11-02T19:44:05.128Z,101155.24
2022-11-02T19:46:20.615Z,101152.30
2022-11-02T19:48:27.146Z,101155.16
2022-11-02T19:50:33.604Z,101152.42
2022-11-02T19:52:40.144Z,101154.84
2022-11-02T19:54:47.253Z,101161.42
2022-11-02T19:56:53.850Z,101157.13
2022-11-02T19:59:00.817Z,101161.88
2022-11-02T20:01:16.277Z,101163.95
2022-11-02T20:03:22.591Z,101166.55
2022-11-02T20:05:29.082Z,101161.48
2022-11-02T20:07:35.602Z,101167.70
2022-11-02T20:09:42.843Z,101165.08
2022-11-02T20:11:49.710Z,101167.25
2022-11-02T20:13:58.285Z,101169.26
2022-11-02T20:16:06.852Z,101168.61
2022-11-02T20:18:19.557Z,101166.45
2022-11-02T20:20:26.367Z,101163.31
2022-11-02T20:22:32.739Z,101162.97
2022-11-02T20:24:39.296Z,101161.97
2022-11-02T20:26:46.427Z,101158.10
2022-11-02T20:28:53.180Z,101158.74
2022-11-02T20:31:00.067Z,101160.90
2022-11-02T20:33:06.714Z,101158.59
2022-11-02T20:35:14.016Z,101164.27
2022-11-02T20:37:20.952Z,101161.80
2022-11-02T20:39:27.631Z,101158.98
2022-11-02T20:41:34.604Z,101158.91
2022-11-02T20:43:44.143Z,101157.02
2022-11-02T20:45:50.660Z,101156.96
2022-11-02T20:48:02.126Z,101159.11
2022-11-02T20:50:12.832Z,101163.02
2022-11-02T20:52:23.133Z,101162.34
2022-11-02T20:54:30.721Z,101157.66
2022-11-02T20:56:37.346Z,101161.25
2022-11-02T20:58:44.450Z,101170.74
2022-11-02T21:00:51.648Z,101169.27
2022-11-02T21:02:58.115Z,101172.20
2022-11-02T21:05:05.922Z,101171.72
2022-11-02T21:07:12.295Z,101168.22
2022-11-02T21:09:19.086Z,101168.05
2022-11-02T21:11:43.656Z,101168.05
2022-11-02T21:13:53.061Z,101163.60
2022-11-02T21:16:04.279Z,101164.55
2022-11-02T21:18:11.535Z,101164.50
2022-11-02T21:20:33.522Z,101163.67
2022-11-02T21:22:40.678Z,101161.77
2022-11-02T21:24:47.225Z,101161.89
2022-11-02T21:26:54.036Z,101159.38
2022-11-02T21:29:02.918Z,101165.33
2022-11-02T21:31:16.315Z,101172.22
2022-11-02T21:33:22.705Z,101172.64
2022-11-02T21:35:29.286Z,101171.77
2022-11-02T21:37:36.082Z,101172.38
2022-11-02T21:39:42.824Z,101174.82
2022-11-02T21:41:49.669Z,101176.35
2022-11-02T21:43:59.187Z,101176.48
2022-11-02T21:46:07.349Z,101180.93
2022-11-02T21:48:14.550Z,101182.71
2022-11-02T21:50:21.039Z,101180.13
2022-11-02T21:52:27.680Z,101180.38
2022-11-02T21:54:34.381Z,101180.80
2022-11-02T21:56:41.001Z,101179.58
2022-11-02T21:58:49.077Z,101183.31
2022-11-02T22:01:25.320Z,101191.35
2022-11-02T22:03:32.008Z,101192.38
2022-11-02T22:05:56.612Z,101192.95
2022-11-02T22:08:21.530Z,101191.23
2022-11-02T22:10:28.408Z,101190.70
2022-11-02T22:12:52.947Z,101193.86
2022-11-02T22:14:59.695Z,101198.34
2022-11-02T22:17:16.406Z,101195.23
2022-11-02T22:19:29.668Z,101202.36
2022-11-02T22:21:39.253Z,101206.11
2022-11-02T22:23:49.991Z,101207.88
2022-11-02T22:26:06.335Z,101207.75
2022-11-02T22:28:13.093Z,101211.05
2022-11-02T22:30:19.262Z,101215.72
2022-11-02T22:32:25.772Z,101212.41
2022-11-02T22:34:32.157Z,101213.27
2022-11-02T22:36:41.403Z,101218.08
2022-11-02T22:38:54.627Z,101217.21
2022-11-02T22:41:02.386Z,101219.89
2022-11-02T22:43:09.254Z,101222.30
2022-11-02T22:45:16.646Z,101225.71
2022-11-02T22:47:23.149Z,101219.05
2022-11-02T22:49:29.380Z,101226.00
2022-11-02T22:51:38.451Z,101228.79
2022-11-02T22:53:45.119Z,101233.67
2022-11-02T22:56:01.619Z,101235.30
2022-11-02T22:58:08.001Z,101238.13
2022-11-02T23:00:15.156Z,101234.60
2022-11-02T23:02:21.499Z,101240.87
2022-11-02T23:04:28.368Z,101241.58
2022-11-02T23:06:35.407Z,101241.56
2022-11-02T23:08:44.299Z,101248.45
2022-11-02T23:11:14.370Z,101249.20
2022-11-02T23:13:20.975Z,101250.42
2022-11-02T23:15:27.416Z,101249.97
2022-11-02T23:17:33.758Z,101246.96
2022-11-02T23:19:40.396Z,101250.07
2022-11-02T23:22:13.781Z,101256.67
2022-11-02T23:24:38.511Z,101264.79
2022-11-02T23:26:46.689Z,101272.36
2022-11-02T23:29:11.449Z,101275.45
2022-11-02T23:31:36.430Z,101284.48
2022-11-02T23:33:43.318Z,101289.81
2022-11-02T23:36:08.699Z,101296.65
2022-11-02T23:38:14.987Z,101298.80
2022-11-02T23:40:21.371Z,101298.74
2022-11-02T23:42:27.649Z,101300.06
2022-11-02T23:44:33.806Z,101298.84
2022-11-02T23:46:44.953Z,101307.41
2022-11-02T23:48:53.715Z,101305.39
2022-11-02T23:51:18.622Z,101312.17
2022-11-02T23:53:43.657Z,101312.06
2022-11-02T23:56:10.809Z,101315.33
2022-11-02T23:58:17.299Z,101319.54
